createdAt,value
2016-09-18T00:02:28.127Z,1010.17
2016-09-18T00:07:24.678Z,1010.07
2016-09-18T00:12:21.803Z,1010.16
2016-09-18T00:17:18.865Z,1010.17
2016-09-18T00:22:15.501Z,1010.14
2016-09-18T00:27:12.163Z,1010.10
2016-09-18T00:32:08.696Z,1010.17
2016-09-18T00:37:05.270Z,1010.06
2016-09-18T00:42:02.257Z,1010.15
2016-09-18T00:46:58.792Z,1010.22
2016-09-18T00:51:55.420Z,1010.13
2016-09-18T00:56:51.805Z,1010.08
2016-09-18T01:01:48.780Z,1010.08
2016-09-18T01:06:45.148Z,1010.05
2016-09-18T01:11:41.676Z,1010.07
2016-09-18T01:16:38.346Z,1010.07
2016-09-18T01:21:35.013Z,1010.06
2016-09-18T01:26:31.618Z,1010.02
2016-09-18T01:31:28.009Z,1010.09
2016-09-18T01:36:24.675Z,1010.01
2016-09-18T01:41:21.356Z,1010.23
2016-09-18T01:46:17.934Z,1010.16
2016-09-18T01:51:14.730Z,1010.15
2016-09-18T01:56:13.817Z,1010.15
2016-09-18T02:01:09.818Z,1010.11
2016-09-18T02:06:06.400Z,1010.10
2016-09-18T02:11:02.965Z,1010.10
2016-09-18T02:16:00.036Z,1010.11
2016-09-18T02:20:59.128Z,1010.13
2016-09-18T02:25:55.001Z,1010.04
2016-09-18T02:30:51.554Z,1009.95
2016-09-18T02:35:48.723Z,1010.08
2016-09-18T02:40:45.261Z,1010.01
2016-09-18T02:45:44.262Z,1010.05
2016-09-18T02:50:40.382Z,1010.00
2016-09-18T02:55:37.058Z,1009.93
2016-09-18T03:00:33.723Z,1009.95
2016-09-18T03:05:30.322Z,1009.90
2016-09-18T03:10:26.984Z,1009.89
2016-09-18T03:15:23.478Z,1009.94
2016-09-18T03:20:20.356Z,1009.89
2016-09-18T03:25:17.247Z,1009.86
2016-09-18T03:30:13.829Z,1009.78
2016-09-18T03:35:10.682Z,1009.74
2016-09-18T03:40:06.938Z,1009.67
2016-09-18T03:45:03.789Z,1009.77
2016-09-18T03:50:00.744Z,1009.70
2016-09-18T03:54:57.705Z,1009.77
2016-09-18T03:59:54.328Z,1009.78
2016-09-18T04:04:50.899Z,1009.85
2016-09-18T04:09:47.395Z,1009.83
2016-09-18T04:14:44.014Z,1009.78
2016-09-18T04:19:40.523Z,1009.72
2016-09-18T04:24:37.123Z,1009.77
2016-09-18T04:29:33.717Z,1009.69
2016-09-18T04:34:30.256Z,1009.77
2016-09-18T04:39:26.565Z,1009.72
2016-09-18T04:44:23.317Z,1009.69
2016-09-18T04:49:20.190Z,1009.79
2016-09-18T04:54:16.705Z,1009.81
2016-09-18T04:59:13.206Z,1009.88
2016-09-18T05:04:10.087Z,1009.85
2016-09-18T05:09:06.813Z,1009.85
2016-09-18T05:14:03.541Z,1009.90
2016-09-18T05:19:00.034Z,1009.93
2016-09-18T05:23:56.650Z,1009.95
2016-09-18T05:28:53.227Z,1010.03
2016-09-18T05:33:49.599Z,1010.03
2016-09-18T05:38:46.515Z,1010.06
2016-09-18T05:43:43.185Z,1010.06
2016-09-18T05:48:39.749Z,1010.02
2016-09-18T05:53:36.227Z,1010.12
2016-09-18T05:58:33.343Z,1010.12
2016-09-18T06:03:29.660Z,1010.05
2016-09-18T06:08:26.140Z,1010.04
2016-09-18T06:13:23.176Z,1010.08
2016-09-18T06:18:19.812Z,1010.03
2016-09-18T06:23:16.502Z,1010.02
2016-09-18T06:28:12.998Z,1009.98
2016-09-18T06:33:09.826Z,1010.05
2016-09-18T06:38:06.222Z,1010.08
2016-09-18T06:43:03.225Z,1010.12
2016-09-18T06:47:59.835Z,1010.24
2016-09-18T06:52:56.329Z,1010.18
2016-09-18T06:57:52.960Z,1010.18
2016-09-18T07:02:49.517Z,1010.31
2016-09-18T07:12:46.613Z,1010.15
2016-09-18T07:17:43.010Z,1010.11
2016-09-18T07:22:40.081Z,1010.16
2016-09-18T07:27:37.383Z,1010.13
2016-09-18T07:32:33.794Z,1010.12
2016-09-18T07:37:30.414Z,1010.15
2016-09-18T07:42:27.368Z,1010.18
2016-09-18T07:47:23.981Z,1010.17
2016-09-18T07:52:20.761Z,1010.09
2016-09-18T07:57:17.669Z,1010.19
2016-09-18T08:02:14.496Z,1010.21
2016-09-18T08:07:11.277Z,1010.14
2016-09-18T08:12:07.799Z,1010.25
2016-09-18T08:17:04.602Z,1010.32
2016-09-18T08:22:02.440Z,1010.31
2016-09-18T08:26:59.876Z,1010.30
2016-09-18T08:31:55.518Z,1010.34
2016-09-18T08:36:51.613Z,1010.30
2016-09-18T08:41:47.722Z,1010.38
2016-09-18T08:46:44.558Z,1010.47
2016-09-18T08:51:42.075Z,1010.45
2016-09-18T08:56:38.815Z,1010.44
2016-09-18T09:01:35.520Z,1010.46
2016-09-18T09:06:32.502Z,1010.53
2016-09-18T09:11:28.852Z,1010.47
2016-09-18T09:16:25.585Z,1010.49
2016-09-18T09:21:22.356Z,1010.40
2016-09-18T09:26:18.900Z,1010.44
2016-09-18T09:31:16.103Z,1010.43
2016-09-18T09:36:13.444Z,1010.45
2016-09-18T09:41:10.284Z,1010.39
2016-09-18T09:46:07.233Z,1010.36
2016-09-18T09:51:05.670Z,1010.40
2016-09-18T09:56:02.170Z,1010.33
2016-09-18T10:00:59.179Z,1010.36
2016-09-18T10:05:55.936Z,1010.33
2016-09-18T10:10:52.936Z,1010.23
2016-09-18T10:15:50.379Z,1010.26
2016-09-18T10:20:47.160Z,1010.20
2016-09-18T10:25:44.373Z,1010.16
2016-09-18T10:30:41.093Z,1010.11
2016-09-18T10:35:38.486Z,1010.15
2016-09-18T10:40:37.302Z,1010.23
2016-09-18T10:45:37.559Z,1010.25
2016-09-18T10:50:33.783Z,1010.21
2016-09-18T10:55:33.245Z,1010.23
2016-09-18T11:00:34.656Z,1010.09
2016-09-18T11:05:37.732Z,1010.36
2016-09-18T11:10:35.432Z,1010.35
2016-09-18T11:15:31.478Z,1010.14
2016-09-18T11:20:33.057Z,1010.24
2016-09-18T11:25:31.983Z,1010.09
2016-09-18T11:30:31.493Z,1010.18
2016-09-18T11:35:24.747Z,1009.99
2016-09-18T11:40:16.255Z,1009.90
2016-09-18T11:45:12.596Z,1009.92
2016-09-18T11:50:08.729Z,1010.21
2016-09-18T11:55:11.823Z,1010.13
2016-09-18T12:00:11.904Z,1010.09
2016-09-18T12:05:03.698Z,1009.71
2016-09-18T12:09:55.110Z,1009.80
2016-09-18T12:14:49.679Z,1009.86
2016-09-18T12:19:44.624Z,1009.97
2016-09-18T12:24:45.863Z,1009.80
2016-09-18T12:29:40.463Z,1009.84
2016-09-18T12:34:37.444Z,1009.75
2016-09-18T12:39:33.387Z,1009.71
2016-09-18T12:44:29.908Z,1009.71
2016-09-18T12:49:26.664Z,1009.75
2016-09-18T12:54:22.724Z,1009.67
2016-09-18T12:59:18.856Z,1009.69
2016-09-18T13:04:15.645Z,1009.66
2016-09-18T13:09:12.126Z,1009.56
2016-09-18T13:14:09.473Z,1009.52
2016-09-18T13:19:06.886Z,1009.48
2016-09-18T13:24:03.509Z,1009.40
2016-09-18T13:28:59.632Z,1009.46
2016-09-18T13:33:57.320Z,1009.42
2016-09-18T13:38:53.896Z,1009.50
2016-09-18T13:43:50.269Z,1009.42
2016-09-18T13:48:47.736Z,1009.43
2016-09-18T13:53:45.186Z,1009.35
2016-09-18T13:58:45.891Z,1009.32
2016-09-18T14:03:42.194Z,1009.30
2016-09-18T14:08:38.335Z,1009.34
2016-09-18T14:13:34.747Z,1009.34
2016-09-18T14:18:31.022Z,1009.42
2016-09-18T14:23:27.744Z,1009.33
2016-09-18T14:28:24.936Z,1009.39
2016-09-18T14:33:21.884Z,1009.40
2016-09-18T14:38:19.676Z,1009.40
2016-09-18T14:43:16.134Z,1009.29
2016-09-18T14:48:12.790Z,1009.43
2016-09-18T14:53:09.422Z,1009.38
2016-09-18T14:58:07.362Z,1009.42
2016-09-18T15:03:03.765Z,1009.39
2016-09-18T15:08:03.615Z,1009.31
2016-09-18T15:12:59.446Z,1009.34
2016-09-18T15:17:56.001Z,1009.32
2016-09-18T15:22:58.330Z,1009.32
2016-09-18T15:27:54.917Z,1009.34
2016-09-18T15:32:51.480Z,1009.30
2016-09-18T15:37:48.290Z,1009.27
2016-09-18T15:42:45.932Z,1009.28
2016-09-18T15:47:42.629Z,1009.34
2016-09-18T15:52:39.659Z,1009.34
2016-09-18T16:02:38.850Z,1009.26
2016-09-18T16:07:36.608Z,1009.33
2016-09-18T16:12:33.042Z,1009.38
2016-09-18T16:17:29.642Z,1009.45
2016-09-18T16:22:26.382Z,1009.36
2016-09-18T16:27:23.466Z,1009.37
2016-09-18T16:32:20.065Z,1009.48
2016-09-18T16:37:17.489Z,1009.53
2016-09-18T16:42:13.767Z,1009.52
2016-09-18T16:47:10.072Z,1009.57
2016-09-18T16:52:06.940Z,1009.50
2016-09-18T16:57:03.664Z,1009.52
2016-09-18T17:02:00.275Z,1009.54
2016-09-18T17:06:56.721Z,1009.65
2016-09-18T17:11:53.473Z,1009.64
2016-09-18T17:16:49.875Z,1009.69
2016-09-18T17:21:46.505Z,1009.72
2016-09-18T17:26:42.713Z,1009.77
2016-09-18T17:31:39.194Z,1009.71
2016-09-18T17:36:36.474Z,1009.73
2016-09-18T17:41:32.920Z,1009.78
2016-09-18T17:46:29.221Z,1009.77
2016-09-18T17:51:25.788Z,1009.90
2016-09-18T17:56:22.272Z,1009.88
2016-09-18T18:01:19.117Z,1010.06
2016-09-18T18:06:18.841Z,1010.15
2016-09-18T18:11:14.891Z,1010.09
2016-09-18T18:16:11.935Z,1009.99
2016-09-18T18:21:08.381Z,1010.05
2016-09-18T18:26:04.873Z,1010.13
2016-09-18T18:31:03.964Z,1010.06
2016-09-18T18:35:59.925Z,1010.08
2016-09-18T18:40:56.291Z,1010.11
2016-09-18T18:45:53.085Z,1010.24
2016-09-18T18:50:49.838Z,1010.27
2016-09-18T18:55:47.710Z,1010.40
2016-09-18T19:00:43.991Z,1010.34
2016-09-18T19:05:40.530Z,1010.37
2016-09-18T19:10:37.145Z,1010.45
2016-09-18T19:15:33.520Z,1010.41
2016-09-18T19:20:30.101Z,1010.48
2016-09-18T19:25:26.323Z,1010.42
2016-09-18T19:30:22.872Z,1010.43
2016-09-18T19:35:19.925Z,1010.48
2016-09-18T19:40:16.431Z,1010.57
2016-09-18T19:45:13.678Z,1010.59
2016-09-18T19:50:09.943Z,1010.60
2016-09-18T19:55:06.531Z,1010.55
2016-09-18T20:00:03.566Z,1010.60
2016-09-18T20:05:00.262Z,1010.55
2016-09-18T20:09:56.984Z,1010.53
2016-09-18T20:14:53.356Z,1010.69
2016-09-18T20:19:49.503Z,1010.67
2016-09-18T20:24:47.349Z,1010.65
2016-09-18T20:29:43.724Z,1010.72
2016-09-18T20:34:40.272Z,1010.67
2016-09-18T20:39:36.925Z,1010.75
2016-09-18T20:44:33.280Z,1010.65
2016-09-18T20:49:30.092Z,1010.68
2016-09-18T20:54:26.575Z,1010.73
2016-09-18T20:59:23.198Z,1010.67
2016-09-18T21:04:19.800Z,1010.74
2016-09-18T21:09:16.218Z,1010.78
2016-09-18T21:14:12.800Z,1010.71
2016-09-18T21:19:09.477Z,1010.84
2016-09-18T21:24:05.915Z,1010.73
2016-09-18T21:29:03.025Z,1010.76
2016-09-18T21:34:00.011Z,1010.73
2016-09-18T21:38:56.837Z,1010.67
2016-09-18T21:43:53.384Z,1010.77
2016-09-18T21:48:50.861Z,1010.75
2016-09-18T21:53:47.042Z,1010.75
2016-09-18T21:58:43.410Z,1010.79
2016-09-18T22:03:40.317Z,1010.73
2016-09-18T22:08:36.857Z,1010.74
2016-09-18T22:13:33.702Z,1010.79
2016-09-18T22:18:30.301Z,1010.81
2016-09-18T22:23:26.773Z,1010.81
2016-09-18T22:28:23.291Z,1010.70
2016-09-18T22:33:20.423Z,1010.84
2016-09-18T22:38:17.004Z,1010.88
2016-09-18T22:43:13.623Z,1010.87
2016-09-18T22:48:10.276Z,1010.92
2016-09-18T22:53:06.692Z,1010.93
2016-09-18T22:58:03.343Z,1010.96
2016-09-18T23:03:01.718Z,1010.94
2016-09-18T23:07:59.361Z,1010.93
2016-09-18T23:12:55.937Z,1010.99
2016-09-18T23:17:52.348Z,1011.04
2016-09-18T23:22:49.791Z,1011.04
2016-09-18T23:27:47.675Z,1010.98
2016-09-18T23:32:43.868Z,1010.97
2016-09-18T23:37:40.573Z,1010.93
2016-09-18T23:42:37.362Z,1010.92
2016-09-18T23:47:33.776Z,1010.94
2016-09-18T23:52:30.395Z,1011.03
2016-09-18T23:57:27.196Z,1010.94
